Time;durP1;ratioP1;P1;durP2;ratioP2;P2;SDS_P1;SDS_P2;PMS_P1;PMS_P2;Temp;Humidity;BMP_temperature;BMP_pressure;BME280_temperature;BME280_humidity;BME280_pressure;Samples;Min_cycle;Max_cycle;Signal;HPM_P1;HPM_P2
2021/04/22 00:04:36;;;;;;;1.75;1.10;;;17.80;55.80;;;;;;10497446;28;20037;-48
2021/04/22 00:09:38;;;;;;;2.10;0.82;;;17.80;55.80;;;;;;10496970;28;20032;-52
2021/04/22 00:14:39;;;;;;;2.80;0.82;;;17.80;55.50;;;;;;10497341;28;20075;-48
2021/04/22 00:19:39;;;;;;;1.70;0.90;;;17.80;55.30;;;;;;10478815;28;20119;-51
2021/04/22 00:24:40;;;;;;;2.60;1.17;;;17.80;55.30;;;;;;10496956;28;20035;-52
2021/04/22 00:29:41;;;;;;;2.50;0.85;;;17.80;55.30;;;;;;10496200;28;20372;-49
2021/04/22 00:34:41;;;;;;;2.00;1.00;;;17.80;55.40;;;;;;10496968;28;20430;-50
2021/04/22 00:39:42;;;;;;;1.27;0.65;;;17.80;55.70;;;;;;10478042;28;20389;-53
2021/04/22 00:44:47;;;;;;;3.50;1.20;;;17.70;55.30;;;;;;10496385;28;20048;-51
2021/04/22 00:49:48;;;;;;;1.70;0.90;;;17.80;55.20;;;;;;10509783;28;20511;-52
2021/04/22 00:54:49;;;;;;;2.80;1.15;;;17.80;55.10;;;;;;10478333;28;20036;-49
2021/04/22 00:59:49;;;;;;;2.75;1.50;;;17.80;55.20;;;;;;10495835;28;20029;-52
2021/04/22 01:04:51;;;;;;;3.20;0.95;;;17.80;55.10;;;;;;10501133;28;20108;-49
2021/04/22 01:09:52;;;;;;;1.63;1.10;;;17.80;55.10;;;;;;10503521;28;20036;-51
2021/04/22 01:14:52;;;;;;;1.95;0.82;;;17.70;55.00;;;;;;10503939;28;20033;-56
2021/04/22 01:19:54;;;;;;;1.98;1.20;;;17.80;55.00;;;;;;10503079;28;20124;-57
2021/04/22 01:24:55;;;;;;;3.00;1.42;;;17.80;55.70;;;;;;10503035;28;20031;-57
2021/04/22 01:29:55;;;;;;;4.70;0.85;;;17.70;55.00;;;;;;10484421;28;20483;-57
2021/04/22 01:34:56;;;;;;;3.03;1.08;;;17.70;55.00;;;;;;10485145;28;20703;-57
2021/04/22 01:39:57;;;;;;;1.90;0.82;;;17.70;55.00;;;;;;10483975;28;20044;-57
2021/04/22 01:44:58;;;;;;;3.20;1.33;;;17.70;55.00;;;;;;10484670;28;20051;-57
2021/04/22 01:49:59;;;;;;;2.65;1.02;;;17.70;55.00;;;;;;10502537;28;20094;-57
2021/04/22 01:55:00;;;;;;;2.60;0.80;;;17.70;55.00;;;;;;10502177;28;20052;-56
2021/04/22 02:00:17;;;;;;;3.20;0.73;;;17.70;60.50;;;;;;10501616;28;20550;-48
2021/04/22 02:05:20;;;;;;;2.45;0.98;;;17.70;60.30;;;;;;10501756;28;20029;-48
2021/04/22 02:10:20;;;;;;;2.72;1.25;;;17.80;60.20;;;;;;10501574;28;20028;-49
2021/04/22 02:15:28;;;;;;;3.80;1.17;;;17.80;60.70;;;;;;10501061;28;20044;-49
2021/04/22 02:20:29;;;;;;;2.42;0.88;;;17.80;60.30;;;;;;10483458;28;20067;-48
2021/04/22 02:25:30;;;;;;;3.47;1.38;;;17.80;60.40;;;;;;10501040;28;20055;-52
2021/04/22 02:30:33;;;;;;;2.88;1.02;;;17.80;60.30;;;;;;10500728;28;20060;-51
2021/04/22 02:35:38;;;;;;;3.05;1.33;;;17.80;59.90;;;;;;10500533;28;20032;-50
2021/04/22 02:40:41;;;;;;;2.08;1.00;;;17.80;59.30;;;;;;10499882;28;20067;-49
2021/04/22 02:45:47;;;;;;;4.97;1.20;;;17.70;59.40;;;;;;10500210;28;20037;-49
2021/04/22 02:50:51;;;;;;;1.55;0.80;;;17.70;59.40;;;;;;10500296;28;20479;-57
2021/04/22 02:55:53;;;;;;;1.40;0.75;;;17.70;59.10;;;;;;10499604;28;20028;-57
2021/04/22 03:00:55;;;;;;;3.80;1.13;;;17.70;58.50;;;;;;10499429;28;20500;-57
2021/04/22 03:05:57;;;;;;;3.03;1.27;;;17.70;58.50;;;;;;10498998;28;20034;-57
2021/04/22 03:10:57;;;;;;;2.63;1.00;;;17.70;58.40;;;;;;10499209;28;20033;-57
2021/04/22 03:15:58;;;;;;;2.65;1.05;;;17.60;58.30;;;;;;10498788;28;20664;-57
2021/04/22 03:20:59;;;;;;;4.00;1.10;;;17.70;58.10;;;;;;10498553;28;20045;-56
2021/04/22 03:25:59;;;;;;;2.58;1.05;;;17.70;58.00;;;;;;10497582;28;20028;-57
2021/04/22 03:31:00;;;;;;;3.35;1.48;;;17.70;57.90;;;;;;10498094;28;20389;-57
2021/04/22 03:36:01;;;;;;;3.17;0.90;;;17.70;57.80;;;;;;10498346;28;20055;-57
2021/04/22 03:41:02;;;;;;;1.98;1.10;;;17.70;57.60;;;;;;10497519;28;20036;-57
2021/04/22 03:46:03;;;;;;;2.53;1.63;;;17.70;57.50;;;;;;10480086;28;20055;-57
2021/04/22 03:51:04;;;;;;;2.05;0.88;;;17.70;57.40;;;;;;10497504;28;20384;-56
2021/04/22 03:56:05;;;;;;;2.00;1.30;;;17.60;57.40;;;;;;10497899;28;20032;-56
2021/04/22 04:01:06;;;;;;;2.22;0.80;;;17.60;57.30;;;;;;10496929;28;20031;-57
2021/04/22 04:06:06;;;;;;;1.80;1.20;;;17.60;57.20;;;;;;10497195;28;20037;-56
2021/04/22 04:11:07;;;;;;;1.95;0.90;;;17.60;57.10;;;;;;10493754;28;20044;-56
2021/04/22 04:16:08;;;;;;;1.13;0.70;;;17.70;57.00;;;;;;10451012;28;20047;-57
2021/04/22 04:21:09;;;;;;;2.80;0.80;;;17.70;56.90;;;;;;10489950;28;20127;-56
2021/04/22 04:26:10;;;;;;;2.03;0.85;;;17.70;56.70;;;;;;10489787;28;20508;-57
2021/04/22 04:31:10;;;;;;;2.85;1.02;;;17.70;56.60;;;;;;10471799;28;20515;-57
2021/04/22 04:36:11;;;;;;;1.55;0.93;;;17.70;56.50;;;;;;10491250;28;20038;-56
2021/04/22 04:41:12;;;;;;;3.35;0.70;;;17.70;56.50;;;;;;10496344;28;20053;-56
2021/04/22 04:46:17;;;;;;;2.78;1.15;;;17.60;56.40;;;;;;10497501;28;20017;-56
2021/04/22 04:51:17;;;;;;;2.03;1.23;;;17.70;56.50;;;;;;10497738;28;20119;-56
2021/04/22 04:56:19;;;;;;;3.63;1.17;;;17.70;56.40;;;;;;10479696;28;20039;-56
2021/04/22 05:01:20;;;;;;;2.75;1.38;;;17.70;56.30;;;;;;10498979;28;20040;-57
2021/04/22 05:06:20;;;;;;;4.15;1.33;;;17.60;56.20;;;;;;10503682;28;20028;-56
2021/04/22 05:11:21;;;;;;;6.03;1.30;;;17.60;56.70;;;;;;10503492;28;20412;-56
2021/04/22 05:16:22;;;;;;;6.50;1.77;;;17.60;58.50;;;;;;10503317;28;20028;-56
2021/04/22 05:21:22;;;;;;;5.68;1.70;;;17.70;58.30;;;;;;10484841;28;20034;-56
2021/04/22 05:26:23;;;;;;;4.20;1.15;;;17.70;58.20;;;;;;10502913;28;20033;-53
2021/04/22 05:31:25;;;;;;;7.43;1.00;;;17.70;58.50;;;;;;10502876;28;20040;-55
2021/04/22 05:36:25;;;;;;;6.90;1.58;;;17.70;58.70;;;;;;10502929;28;20032;-56
2021/04/22 05:41:26;;;;;;;8.10;1.35;;;17.70;58.70;;;;;;10477469;28;20048;-58
2021/04/22 05:46:27;;;;;;;7.70;2.05;;;17.70;58.80;;;;;;10483429;28;20099;-57
2021/04/22 05:51:28;;;;;;;12.27;1.75;;;17.70;58.80;;;;;;10482477;28;20025;-57
2021/04/22 05:56:29;;;;;;;5.47;1.67;;;17.70;58.60;;;;;;10501291;28;20043;-57
2021/04/22 06:01:29;;;;;;;11.05;2.70;;;17.60;58.30;;;;;;10483161;28;20043;-57
2021/04/22 06:06:30;;;;;;;13.65;2.55;;;17.60;58.00;;;;;;10500775;28;20092;-57
2021/04/22 06:11:31;;;;;;;6.88;2.13;;;17.50;57.90;;;;;;10501062;28;20086;-58
2021/04/22 06:16:32;;;;;;;9.30;1.75;;;17.50;57.60;;;;;;10499400;28;20029;-58
2021/04/22 06:21:33;;;;;;;5.30;2.72;;;17.50;57.60;;;;;;10498425;28;20070;-56
2021/04/22 06:26:34;;;;;;;7.68;2.38;;;17.50;57.70;;;;;;10496734;28;20103;-58
2021/04/22 06:31:34;;;;;;;5.93;1.70;;;17.50;57.40;;;;;;10483164;28;20085;-56
2021/04/22 06:36:35;;;;;;;7.63;1.95;;;17.50;57.40;;;;;;10475600;28;20104;-58
2021/04/22 06:41:36;;;;;;;6.57;1.85;;;17.60;57.00;;;;;;10497865;28;20044;-56
2021/04/22 06:46:39;;;;;;;9.68;2.33;;;17.60;56.90;;;;;;10498936;28;20030;-57
2021/04/22 06:51:39;;;;;;;9.60;1.95;;;17.60;56.90;;;;;;10499655;28;20028;-57
2021/04/22 06:56:40;;;;;;;5.80;1.35;;;17.60;56.80;;;;;;10481584;28;20040;-58
2021/04/22 07:01:41;;;;;;;6.13;1.58;;;17.60;56.90;;;;;;10479972;28;20024;-58
2021/04/22 07:06:42;;;;;;;7.05;2.08;;;17.60;56.90;;;;;;10497843;28;20024;-58
2021/04/22 07:11:43;;;;;;;5.55;2.05;;;17.60;57.00;;;;;;10497790;28;20086;-58
2021/04/22 07:16:44;;;;;;;4.20;1.55;;;17.60;57.00;;;;;;10497655;28;20389;-58
2021/04/22 07:21:45;;;;;;;4.07;1.45;;;17.50;57.10;;;;;;10486313;28;20028;-56
2021/04/22 07:26:46;;;;;;;4.63;1.20;;;17.50;57.20;;;;;;10497770;28;20024;-57
2021/04/22 07:31:47;;;;;;;6.65;1.80;;;17.50;57.10;;;;;;10470445;28;20391;-57
2021/04/22 07:36:48;;;;;;;4.10;1.23;;;17.50;57.20;;;;;;10497282;28;20020;-56
2021/04/22 07:41:49;;;;;;;3.45;1.30;;;17.50;57.20;;;;;;10496640;28;20516;-57
2021/04/22 07:46:49;;;;;;;4.40;1.30;;;17.50;57.10;;;;;;10496764;28;20032;-57
2021/04/22 07:51:50;;;;;;;6.03;1.15;;;17.50;57.10;;;;;;10478653;28;20122;-57
2021/04/22 07:56:51;;;;;;;5.35;1.45;;;17.50;57.30;;;;;;10496343;28;20103;-58
2021/04/22 08:01:51;;;;;;;4.10;1.13;;;17.50;57.30;;;;;;10480289;28;20055;-58
2021/04/22 08:06:52;;;;;;;6.35;1.30;;;17.50;57.30;;;;;;10488697;28;20118;-57
2021/04/22 08:11:53;;;;;;;3.42;1.20;;;17.40;57.50;;;;;;10489788;28;20037;-57
2021/04/22 08:16:53;;;;;;;2.67;1.30;;;17.40;57.50;;;;;;10490242;28;20032;-58
2021/04/22 08:21:54;;;;;;;4.22;1.40;;;17.40;57.50;;;;;;10490413;28;20036;-57
2021/04/22 08:26:55;;;;;;;3.10;1.58;;;17.40;57.50;;;;;;10490490;28;20024;-57
2021/04/22 08:31:56;;;;;;;2.13;1.10;;;17.40;57.60;;;;;;10496061;28;20059;-57
2021/04/22 08:36:57;;;;;;;2.10;1.33;;;17.40;57.60;;;;;;10496657;28;20104;-58
2021/04/22 08:41:58;;;;;;;5.95;1.33;;;17.30;57.80;;;;;;10475003;28;20497;-57
2021/04/22 08:47:00;;;;;;;4.97;1.17;;;17.30;57.80;;;;;;10478568;28;20447;-58
2021/04/22 08:52:03;;;;;;;1.92;0.98;;;17.30;57.90;;;;;;10496152;28;20116;-57
2021/04/22 08:57:04;;;;;;;3.40;0.98;;;17.40;57.90;;;;;;10495839;28;20082;-57
2021/04/22 09:02:05;;;;;;;2.65;1.40;;;17.30;57.80;;;;;;10496001;28;20477;-57
2021/04/22 09:07:06;;;;;;;2.53;0.93;;;17.30;57.90;;;;;;10478037;28;20165;-57
2021/04/22 09:12:20;;;;;;;2.10;0.90;;;17.30;58.60;;;;;;10495688;28;20146;-57
2021/04/22 09:17:23;;;;;;;4.43;1.30;;;17.30;58.00;;;;;;10477720;28;20028;-57
2021/04/22 09:22:53;;;;;;;2.60;1.00;;;17.30;57.90;;;;;;10495477;28;20092;-57
2021/04/22 09:28:08;;;;;;;1.83;0.80;;;17.40;58.10;;;;;;10481770;28;20036;-57
2021/04/22 09:33:25;;;;;;;2.58;0.95;;;17.40;58.10;;;;;;10502721;28;20036;-57
2021/04/22 09:38:25;;;;;;;3.25;1.20;;;17.30;58.00;;;;;;10503358;28;20033;-57
2021/04/22 09:43:26;;;;;;;3.30;1.08;;;17.30;58.10;;;;;;10502177;28;20431;-57
2021/04/22 09:48:30;;;;;;;2.08;0.93;;;17.30;58.20;;;;;;10502188;28;20032;-58
2021/04/22 09:53:32;;;;;;;5.20;1.08;;;17.40;58.10;;;;;;10502182;28;20029;-57
2021/04/22 09:58:33;;;;;;;6.88;1.38;;;17.40;58.10;;;;;;10501233;28;20028;-58
2021/04/22 10:03:36;;;;;;;1.85;0.75;;;17.40;58.20;;;;;;10501188;28;20017;-50
2021/04/22 10:08:43;;;;;;;1.85;0.70;;;17.40;58.10;;;;;;10482709;28;20827;-50
2021/04/22 10:13:49;;;;;;;1.98;0.80;;;17.40;58.10;;;;;;10501357;28;20031;-47
2021/04/22 10:18:50;;;;;;;5.60;1.20;;;17.30;58.10;;;;;;10480980;28;20064;-49
2021/04/22 10:24:00;;;;;;;2.67;1.27;;;17.40;58.20;;;;;;10482300;28;20103;-57
2021/04/22 10:29:01;;;;;;;2.50;1.00;;;17.40;58.20;;;;;;10482518;28;20036;-58
2021/04/22 10:34:02;;;;;;;1.85;0.65;;;17.40;58.20;;;;;;10497093;28;20131;-56
2021/04/22 10:39:04;;;;;;;1.92;1.00;;;17.40;58.10;;;;;;10480368;28;20598;-56
2021/04/22 10:44:07;;;;;;;2.75;1.10;;;17.40;58.10;;;;;;10498071;28;20067;-56
2021/04/22 10:49:07;;;;;;;1.58;0.90;;;17.40;58.00;;;;;;10471024;28;20078;-56
2021/04/22 10:54:08;;;;;;;2.28;0.93;;;17.50;58.10;;;;;;10472774;28;20050;-55
2021/04/22 10:59:20;;;;;;;2.38;0.95;;;17.50;58.10;;;;;;10480431;28;20051;-57
2021/04/22 11:04:21;;;;;;;2.20;1.10;;;17.50;58.10;;;;;;10497980;28;20027;-57
2021/04/22 11:09:21;;;;;;;2.67;1.17;;;17.50;58.00;;;;;;10497831;28;20051;-57
2021/04/22 11:14:35;;;;;;;2.90;1.38;;;17.50;58.00;;;;;;10494739;28;20115;-57
2021/04/22 11:19:40;;;;;;;2.80;0.88;;;17.60;58.10;;;;;;10477380;28;20496;-57
2021/04/22 11:25:02;;;;;;;1.67;0.75;;;17.60;58.00;;;;;;10497629;28;20028;-57
2021/04/22 11:30:06;;;;;;;1.17;0.80;;;17.60;57.90;;;;;;10479660;28;20052;-57
2021/04/22 11:35:13;;;;;;;1.92;1.08;;;17.70;57.80;;;;;;10479251;28;20103;-57
2021/04/22 11:40:27;;;;;;;2.92;0.93;;;17.70;57.70;;;;;;10497243;28;20358;-56
2021/04/22 11:45:31;;;;;;;4.60;1.48;;;17.70;57.70;;;;;;10496664;28;20166;-56
2021/04/22 11:50:45;;;;;;;3.13;0.90;;;17.70;57.40;;;;;;10496192;28;20032;-56
2021/04/22 11:55:59;;;;;;;3.88;1.00;;;17.70;57.40;;;;;;10484123;28;20032;-56
2021/04/22 12:01:10;;;;;;;3.60;1.83;;;17.80;57.30;;;;;;10480090;28;20106;-56
2021/04/22 12:06:17;;;;;;;1.80;0.90;;;17.80;57.40;;;;;;10480587;28;20024;-56
2021/04/22 12:11:22;;;;;;;1.85;0.90;;;17.80;57.50;;;;;;10496976;28;20028;-57
2021/04/22 12:16:23;;;;;;;3.05;1.05;;;17.80;57.50;;;;;;10496796;28;20039;-56
2021/04/22 12:21:25;;;;;;;1.60;0.77;;;17.80;57.40;;;;;;10496745;28;20108;-57
2021/04/22 12:26:31;;;;;;;2.72;1.15;;;17.90;57.40;;;;;;10496347;28;20025;-57
2021/04/22 12:31:43;;;;;;;2.38;0.80;;;17.90;57.50;;;;;;10496041;28;20444;-57
2021/04/22 12:37:14;;;;;;;1.73;0.60;;;17.90;57.30;;;;;;10496725;28;20358;-57
2021/04/22 12:42:20;;;;;;;2.55;1.15;;;17.90;57.50;;;;;;10461779;28;20114;-57
2021/04/22 12:47:56;;;;;;;2.30;0.80;;;17.90;57.50;;;;;;10496348;28;20354;-57
2021/04/22 12:53:04;;;;;;;1.67;0.80;;;17.90;57.50;;;;;;10496204;28;20044;-56
2021/04/22 12:58:06;;;;;;;1.83;0.77;;;17.90;57.40;;;;;;10497093;28;20358;-57
2021/04/22 13:03:21;;;;;;;1.48;0.80;;;18.00;57.50;;;;;;10486610;28;20028;-57
2021/04/22 13:08:23;;;;;;;2.03;0.90;;;18.00;57.40;;;;;;10503845;28;20024;-56
2021/04/22 13:13:34;;;;;;;1.40;0.80;;;18.00;57.40;;;;;;10485928;28;20039;-57
2021/04/22 13:18:36;;;;;;;2.15;1.15;;;18.00;57.40;;;;;;10503348;28;20111;-57
2021/04/22 13:23:39;;;;;;;1.35;0.80;;;18.00;57.30;;;;;;10482069;28;20423;-57
2021/04/22 13:28:40;;;;;;;3.00;0.88;;;18.10;57.40;;;;;;10503088;28;20534;-57
2021/04/22 13:33:42;;;;;;;0.90;0.60;;;18.10;57.40;;;;;;10502790;28;20028;-57
2021/04/22 13:38:44;;;;;;;1.52;0.80;;;18.10;57.40;;;;;;10502334;28;20032;-56
2021/04/22 13:44:06;;;;;;;1.65;0.85;;;18.10;57.30;;;;;;10502452;28;20082;-58
2021/04/22 13:49:12;;;;;;;2.42;0.88;;;18.10;57.30;;;;;;10502164;28;20060;-56
2021/04/22 13:54:16;;;;;;;1.80;1.05;;;18.10;57.40;;;;;;10501942;28;20377;-57
2021/04/22 13:59:23;;;;;;;1.13;0.80;;;18.10;57.40;;;;;;10501644;28;20489;-57
2021/04/22 14:04:25;;;;;;;2.90;1.20;;;18.10;57.40;;;;;;10502019;28;20134;-57
2021/04/22 14:09:33;;;;;;;1.55;0.70;;;18.10;57.40;;;;;;10500877;28;20032;-57
2021/04/22 14:14:34;;;;;;;1.92;0.73;;;18.10;57.40;;;;;;10483258;28;20070;-47
2021/04/22 14:19:36;;;;;;;1.48;0.80;;;18.10;57.40;;;;;;10466005;28;20481;-50
2021/04/22 14:24:37;;;;;;;2.22;1.00;;;18.10;57.40;;;;;;10478991;28;20119;-50
2021/04/22 14:29:38;;;;;;;1.27;0.60;;;18.10;57.40;;;;;;10500739;28;20036;-52
2021/04/22 14:34:38;;;;;;;1.02;0.80;;;18.10;57.40;;;;;;10499826;28;20429;-51
2021/04/22 14:39:39;;;;;;;3.47;1.05;;;18.10;57.40;;;;;;10499853;28;20040;-52
2021/04/22 14:44:40;;;;;;;3.03;0.60;;;18.10;57.50;;;;;;10500207;28;20124;-51
2021/04/22 14:49:41;;;;;;;1.25;0.80;;;18.10;57.50;;;;;;10500007;28;20044;-51
2021/04/22 14:54:41;;;;;;;1.80;0.90;;;18.10;57.50;;;;;;10499589;28;20032;-52
2021/04/22 14:59:42;;;;;;;3.42;1.00;;;18.10;57.50;;;;;;10499659;28;20124;-51
2021/04/22 15:04:44;;;;;;;1.42;0.77;;;18.10;57.50;;;;;;10499855;28;20071;-51
2021/04/22 15:09:45;;;;;;;1.20;0.60;;;18.10;57.50;;;;;;10499238;28;20358;-50
2021/04/22 15:14:46;;;;;;;1.80;0.70;;;18.10;57.60;;;;;;10498165;28;20028;-52
2021/04/22 15:19:50;;;;;;;1.55;0.85;;;18.10;57.60;;;;;;10480602;28;20036;-51
2021/04/22 15:24:50;;;;;;;1.27;0.75;;;18.10;57.60;;;;;;10498210;28;20505;-50
2021/04/22 15:29:51;;;;;;;3.10;0.95;;;18.10;57.70;;;;;;10497439;28;20123;-52
2021/04/22 15:34:52;;;;;;;1.60;0.98;;;18.10;57.70;;;;;;10497762;28;20033;-51
2021/04/22 15:39:52;;;;;;;1.63;1.02;;;18.00;57.60;;;;;;10497166;28;20020;-49
2021/04/22 15:44:54;;;;;;;1.52;0.95;;;18.10;57.70;;;;;;10496387;28;20072;-55
2021/04/22 15:49:55;;;;;;;1.23;0.85;;;18.00;57.60;;;;;;10470494;28;20032;-51
2021/04/22 15:54:55;;;;;;;1.73;0.80;;;18.10;57.60;;;;;;10496708;28;20038;-52
2021/04/22 15:59:56;;;;;;;5.60;0.90;;;18.10;57.70;;;;;;10496542;28;20028;-49
2021/04/22 16:04:57;;;;;;;5.25;1.30;;;18.00;57.50;;;;;;10497584;28;20031;-48
2021/04/22 16:09:58;;;;;;;10.77;2.25;;;18.00;57.30;;;;;;10496696;28;20032;-49
2021/04/22 16:14:59;;;;;;;38.45;7.45;;;18.10;58.00;;;;;;10496862;28;20035;-51
2021/04/22 16:20:00;;;;;;;36.72;6.68;;;18.10;57.80;;;;;;10478690;28;20031;-51
2021/04/22 16:25:05;;;;;;;21.42;4.78;;;18.10;58.90;;;;;;10496699;28;20378;-55
2021/04/22 16:30:09;;;;;;;26.80;6.18;;;18.20;59.50;;;;;;10496544;28;20536;-53
2021/04/22 16:35:12;;;;;;;33.72;8.05;;;18.20;59.50;;;;;;10503186;28;20108;-53
2021/04/22 16:40:18;;;;;;;32.67;6.10;;;18.20;59.50;;;;;;10486927;28;20123;-52
2021/04/22 16:45:23;;;;;;;14.32;3.65;;;18.20;59.50;;;;;;10504844;28;20045;-53
2021/04/22 16:50:25;;;;;;;36.83;7.07;;;18.20;58.70;;;;;;10503818;28;20033;-54
2021/04/22 16:55:25;;;;;;;17.02;4.82;;;18.10;59.50;;;;;;10487043;28;20078;-55
2021/04/22 17:00:29;;;;;;;21.02;4.80;;;18.10;58.40;;;;;;10504176;28;20044;-55
2021/04/22 17:05:31;;;;;;;15.25;4.68;;;18.10;58.50;;;;;;10474003;28;20078;-53
2021/04/22 17:10:34;;;;;;;16.95;5.13;;;18.10;58.90;;;;;;10503804;28;20396;-51
2021/04/22 17:15:35;;;;;;;17.42;5.20;;;18.10;59.70;;;;;;10504140;28;20440;-47
2021/04/22 17:20:36;;;;;;;11.93;4.78;;;18.10;58.80;;;;;;10478599;28;20078;-52
2021/04/22 17:25:36;;;;;;;18.33;5.55;;;18.10;58.70;;;;;;10502831;28;20032;-50
2021/04/22 17:30:37;;;;;;;14.48;4.32;;;18.00;59.00;;;;;;10502279;28;20362;-51
2021/04/22 17:35:38;;;;;;;12.23;4.80;;;18.00;59.00;;;;;;10502185;28;20039;-50
2021/04/22 17:40:40;;;;;;;12.50;4.85;;;18.00;59.00;;;;;;10501793;28;20492;-52
2021/04/22 17:45:42;;;;;;;11.75;3.83;;;18.00;58.80;;;;;;10500502;28;20048;-50
2021/04/22 17:50:44;;;;;;;12.80;4.50;;;18.00;58.50;;;;;;10467180;28;20040;-52
2021/04/22 17:55:45;;;;;;;10.95;4.13;;;18.00;58.50;;;;;;10501389;28;20054;-48
2021/04/22 18:00:47;;;;;;;11.48;4.85;;;17.90;58.40;;;;;;10494371;28;20086;-53
2021/04/22 18:05:49;;;;;;;6.95;2.83;;;17.90;58.40;;;;;;10493590;28;20028;-53
2021/04/22 18:10:50;;;;;;;10.75;3.50;;;17.90;58.40;;;;;;10493219;28;20044;-52
2021/04/22 18:15:50;;;;;;;13.57;4.25;;;17.90;58.30;;;;;;10495073;28;20062;-53
2021/04/22 18:20:51;;;;;;;7.80;2.70;;;17.90;58.20;;;;;;10491128;28;20074;-51
2021/04/22 18:25:52;;;;;;;8.82;3.13;;;17.80;58.10;;;;;;10494433;28;20083;-54
2021/04/22 18:30:53;;;;;;;9.00;2.97;;;17.80;58.00;;;;;;10494029;28;20047;-53
2021/04/22 18:35:55;;;;;;;9.73;2.50;;;17.80;57.90;;;;;;10496829;28;20029;-47
2021/04/22 18:40:55;;;;;;;12.68;3.17;;;17.80;57.80;;;;;;10499962;28;20032;-47
2021/04/22 18:45:56;;;;;;;12.68;3.25;;;17.80;58.10;;;;;;10499408;28;20048;-48
2021/04/22 18:50:57;;;;;;;13.82;3.53;;;17.90;58.50;;;;;;10499968;28;20035;-51
2021/04/22 18:55:59;;;;;;;15.98;3.20;;;17.90;58.70;;;;;;10488509;28;20041;-49
2021/04/22 19:01:00;;;;;;;9.85;3.45;;;17.90;59.00;;;;;;10473916;28;20040;-48
2021/04/22 19:06:01;;;;;;;8.10;2.83;;;17.90;58.90;;;;;;10497949;28;20052;-50
2021/04/22 19:11:02;;;;;;;9.45;3.15;;;17.80;59.10;;;;;;10498743;28;20032;-49
2021/04/22 19:16:03;;;;;;;10.88;2.85;;;17.80;59.30;;;;;;10497606;28;20112;-48
2021/04/22 19:21:04;;;;;;;9.90;3.03;;;17.80;59.40;;;;;;10498343;28;20028;-49
2021/04/22 19:26:05;;;;;;;6.30;2.47;;;17.80;59.50;;;;;;10479388;28;20024;-51
2021/04/22 19:31:07;;;;;;;8.40;2.67;;;17.90;59.60;;;;;;10497736;28;20033;-48
2021/04/22 19:36:08;;;;;;;7.35;2.25;;;17.80;59.30;;;;;;10498456;28;20085;-52
2021/04/22 19:41:09;;;;;;;7.10;2.20;;;17.80;59.40;;;;;;10497327;28;20085;-52
2021/04/22 19:46:10;;;;;;;9.75;2.10;;;17.80;59.20;;;;;;10496470;28;20054;-52
2021/04/22 19:51:14;;;;;;;5.88;1.92;;;17.80;59.50;;;;;;10496451;28;20442;-50
2021/04/22 19:56:15;;;;;;;6.78;2.40;;;17.80;59.50;;;;;;10497003;28;20026;-51
2021/04/22 20:01:16;;;;;;;10.00;2.92;;;17.80;59.40;;;;;;10478939;28;20028;-53
2021/04/22 20:06:19;;;;;;;13.05;2.88;;;17.80;59.00;;;;;;10495673;28;20036;-55
2021/04/22 20:11:20;;;;;;;5.07;2.25;;;17.80;58.50;;;;;;10478537;28;20024;-51
2021/04/22 20:16:21;;;;;;;6.03;2.05;;;17.80;58.30;;;;;;10478124;28;20517;-52
2021/04/22 20:21:22;;;;;;;6.05;2.20;;;17.80;58.20;;;;;;10496965;28;20025;-53
2021/04/22 20:26:23;;;;;;;4.68;2.10;;;17.80;58.20;;;;;;10496652;28;20477;-54
2021/04/22 20:31:24;;;;;;;9.98;1.58;;;17.80;58.10;;;;;;10467992;28;20431;-54
2021/04/22 20:36:25;;;;;;;4.60;1.98;;;17.70;58.10;;;;;;10478784;28;20384;-53
2021/04/22 20:41:27;;;;;;;6.63;2.10;;;17.70;58.00;;;;;;10496610;28;20033;-54
2021/04/22 20:46:28;;;;;;;6.45;1.65;;;17.70;58.00;;;;;;10496731;28;20390;-54
2021/04/22 20:51:29;;;;;;;7.93;2.22;;;17.70;58.10;;;;;;10478838;28;20040;-55
2021/04/22 20:56:30;;;;;;;7.20;1.80;;;17.70;57.70;;;;;;10478308;28;20536;-54
2021/04/22 21:01:31;;;;;;;5.40;1.77;;;17.70;57.60;;;;;;10495537;28;20548;-53
2021/04/22 21:06:31;;;;;;;2.83;1.70;;;17.70;57.50;;;;;;10471433;28;20032;-54
2021/04/22 21:11:51;;;;;;;3.22;1.52;;;17.70;57.50;;;;;;10477900;28;20032;-54
2021/04/22 21:16:53;;;;;;;5.80;2.00;;;17.70;57.40;;;;;;10495944;28;20059;-54
2021/04/22 21:21:55;;;;;;;3.75;1.80;;;17.70;57.40;;;;;;10501403;28;20496;-55
2021/04/22 21:27:04;;;;;;;4.90;1.60;;;17.70;57.10;;;;;;10502680;28;20090;-55
2021/04/22 21:32:12;;;;;;;2.97;1.53;;;17.70;56.90;;;;;;10503314;28;20381;-55
2021/04/22 21:37:16;;;;;;;6.88;1.83;;;17.70;56.90;;;;;;10502750;28;20302;-54
2021/04/22 21:42:17;;;;;;;3.45;1.30;;;17.70;56.90;;;;;;10484022;28;20040;-54
2021/04/22 21:47:19;;;;;;;4.35;2.00;;;17.70;57.00;;;;;;10502799;28;20017;-54
2021/04/22 21:52:23;;;;;;;3.95;1.55;;;17.70;57.10;;;;;;10502365;28;20037;-54
2021/04/22 21:57:26;;;;;;;2.40;1.10;;;17.70;57.00;;;;;;10502484;28;20090;-55
2021/04/22 22:02:27;;;;;;;4.97;1.58;;;17.60;56.90;;;;;;10501705;28;20159;-54
2021/04/22 22:07:27;;;;;;;5.85;1.88;;;17.60;56.50;;;;;;10484082;28;20030;-54
2021/04/22 22:12:28;;;;;;;6.00;1.88;;;17.70;56.30;;;;;;10501719;28;20040;-53
2021/04/22 22:17:29;;;;;;;4.07;1.42;;;17.70;56.30;;;;;;10501611;28;20028;-54
2021/04/22 22:22:29;;;;;;;3.70;1.50;;;17.70;56.10;;;;;;10500990;28;20119;-54
2021/04/22 22:27:30;;;;;;;4.55;1.30;;;17.70;55.80;;;;;;10500906;28;20027;-53
2021/04/22 22:32:31;;;;;;;3.67;1.40;;;17.70;55.80;;;;;;10482088;28;20168;-53
2021/04/22 22:37:32;;;;;;;2.25;1.23;;;17.70;55.60;;;;;;10500707;28;20040;-54
2021/04/22 22:42:33;;;;;;;3.67;1.33;;;17.70;55.60;;;;;;10499981;28;20070;-54
2021/04/22 22:47:34;;;;;;;2.03;1.20;;;17.70;55.80;;;;;;10500041;28;20093;-53
2021/04/22 22:52:36;;;;;;;5.88;1.63;;;17.70;55.80;;;;;;10500294;28;20028;-52
2021/04/22 22:57:36;;;;;;;2.40;1.13;;;17.60;55.60;;;;;;10465325;28;20032;-54
2021/04/22 23:02:41;;;;;;;4.90;1.58;;;17.70;55.40;;;;;;10499625;28;20033;-52
2021/04/22 23:07:43;;;;;;;3.13;1.35;;;17.70;55.30;;;;;;10499386;28;20512;-54
2021/04/22 23:12:45;;;;;;;6.30;1.88;;;17.70;55.10;;;;;;10499124;28;20119;-54
2021/04/22 23:17:46;;;;;;;4.13;1.30;;;17.70;55.00;;;;;;10498866;28;20029;-54
2021/04/22 23:22:48;;;;;;;5.93;2.05;;;17.70;55.00;;;;;;10481047;28;20024;-57
2021/04/22 23:27:50;;;;;;;3.40;1.25;;;17.70;54.70;;;;;;10498531;28;20032;-56
2021/04/22 23:32:52;;;;;;;2.10;1.05;;;17.80;54.70;;;;;;10498465;28;20027;-56
2021/04/22 23:37:54;;;;;;;3.55;1.90;;;17.70;54.50;;;;;;10498483;28;20465;-57
2021/04/22 23:42:56;;;;;;;3.90;1.00;;;17.70;54.50;;;;;;10497120;28;20049;-57
2021/04/22 23:47:58;;;;;;;3.47;1.23;;;17.70;54.40;;;;;;10497941;28;20392;-56
2021/04/22 23:52:58;;;;;;;2.17;1.05;;;17.70;54.40;;;;;;10497936;28;20569;-56
2021/04/22 23:58:00;;;;;;;2.33;1.10;;;17.70;54.30;;;;;;10497271;28;20032;-56
